sensor_id;sensor_type;location;lat;lon;timestamp;P1;durP1;ratioP1;P2;durP2;ratioP2
2610;SDS011;5612;51.134;17.058;2022-10-16T00:01:43;15.90;;;14.40;;
2610;SDS011;5612;51.134;17.058;2022-10-16T00:04:12;15.73;;;14.20;;
2610;SDS011;5612;51.134;17.058;2022-10-16T00:06:43;14.50;;;13.20;;
2610;SDS011;5612;51.134;17.058;2022-10-16T00:09:11;14.77;;;13.57;;
2610;SDS011;5612;51.134;17.058;2022-10-16T00:11:40;14.07;;;12.90;;
2610;SDS011;5612;51.134;17.058;2022-10-16T00:14:10;15.27;;;13.77;;
2610;SDS011;5612;51.134;17.058;2022-10-16T00:16:40;15.67;;;14.07;;
2610;SDS011;5612;51.134;17.058;2022-10-16T00:19:10;14.33;;;13.03;;
2610;SDS011;5612;51.134;17.058;2022-10-16T00:21:39;14.50;;;13.23;;
2610;SDS011;5612;51.134;17.058;2022-10-16T00:24:09;13.97;;;12.77;;
2610;SDS011;5612;51.134;17.058;2022-10-16T00:26:39;13.30;;;12.10;;
2610;SDS011;5612;51.134;17.058;2022-10-16T00:29:08;12.20;;;11.10;;
2610;SDS011;5612;51.134;17.058;2022-10-16T00:31:37;13.30;;;12.10;;
2610;SDS011;5612;51.134;17.058;2022-10-16T00:34:06;12.57;;;11.47;;
2610;SDS011;5612;51.134;17.058;2022-10-16T00:36:34;12.13;;;11.13;;
2610;SDS011;5612;51.134;17.058;2022-10-16T00:39:03;11.83;;;10.83;;
2610;SDS011;5612;51.134;17.058;2022-10-16T00:41:33;12.77;;;11.67;;
2610;SDS011;5612;51.134;17.058;2022-10-16T00:44:03;19.63;;;10.73;;
2610;SDS011;5612;51.134;17.058;2022-10-16T00:46:52;14.40;;;10.57;;
2610;SDS011;5612;51.134;17.058;2022-10-16T00:49:20;11.73;;;10.73;;
2610;SDS011;5612;51.134;17.058;2022-10-16T00:51:50;11.10;;;10.10;;
2610;SDS011;5612;51.134;17.058;2022-10-16T00:54:22;13.33;;;10.43;;
2610;SDS011;5612;51.134;17.058;2022-10-16T00:56:56;10.60;;;9.43;;
2610;SDS011;5612;51.134;17.058;2022-10-16T00:59:28;11.27;;;10.33;;
2610;SDS011;5612;51.134;17.058;2022-10-16T01:01:58;10.33;;;9.43;;
2610;SDS011;5612;51.134;17.058;2022-10-16T01:04:29;9.00;;;8.27;;
2610;SDS011;5612;51.134;17.058;2022-10-16T01:07:03;10.23;;;9.33;;
2610;SDS011;5612;51.134;17.058;2022-10-16T01:09:41;8.83;;;8.13;;
2610;SDS011;5612;51.134;17.058;2022-10-16T01:12:22;9.97;;;9.07;;
2610;SDS011;5612;51.134;17.058;2022-10-16T01:15:06;9.33;;;8.50;;
2610;SDS011;5612;51.134;17.058;2022-10-16T01:17:41;9.63;;;8.70;;
2610;SDS011;5612;51.134;17.058;2022-10-16T01:20:15;9.07;;;8.27;;
2610;SDS011;5612;51.134;17.058;2022-10-16T01:22:55;9.33;;;8.53;;
2610;SDS011;5612;51.134;17.058;2022-10-16T01:25:43;8.97;;;8.17;;
2610;SDS011;5612;51.134;17.058;2022-10-16T01:28:30;8.80;;;8.10;;
2610;SDS011;5612;51.134;17.058;2022-10-16T01:31:04;7.60;;;7.00;;
2610;SDS011;5612;51.134;17.058;2022-10-16T01:33:35;9.00;;;8.20;;
2610;SDS011;5612;51.134;17.058;2022-10-16T01:36:09;8.37;;;7.23;;
2610;SDS011;5612;51.134;17.058;2022-10-16T01:38:41;8.03;;;7.43;;
2610;SDS011;5612;51.134;17.058;2022-10-16T01:41:15;8.27;;;7.67;;
2610;SDS011;5612;51.134;17.058;2022-10-16T01:43:51;9.80;;;8.90;;
2610;SDS011;5612;51.134;17.058;2022-10-16T01:46:25;9.23;;;8.30;;
2610;SDS011;5612;51.134;17.058;2022-10-16T01:48:55;10.03;;;9.13;;
2610;SDS011;5612;51.134;17.058;2022-10-16T01:51:25;8.47;;;7.87;;
2610;SDS011;5612;51.134;17.058;2022-10-16T01:53:57;10.33;;;9.43;;
2610;SDS011;5612;51.134;17.058;2022-10-16T01:56:28;8.90;;;8.10;;
2610;SDS011;5612;51.134;17.058;2022-10-16T01:59:00;9.30;;;8.00;;
2610;SDS011;5612;51.134;17.058;2022-10-16T02:01:33;9.23;;;8.33;;
2610;SDS011;5612;51.134;17.058;2022-10-16T02:04:06;9.47;;;8.57;;
2610;SDS011;5612;51.134;17.058;2022-10-16T02:06:39;9.47;;;8.60;;
2610;SDS011;5612;51.134;17.058;2022-10-16T02:09:08;11.27;;;10.17;;
2610;SDS011;5612;51.134;17.058;2022-10-16T02:11:37;9.67;;;8.87;;
2610;SDS011;5612;51.134;17.058;2022-10-16T02:14:07;11.17;;;9.10;;
2610;SDS011;5612;51.134;17.058;2022-10-16T02:16:37;9.83;;;9.03;;
2610;SDS011;5612;51.134;17.058;2022-10-16T02:19:07;9.47;;;8.77;;
2610;SDS011;5612;51.134;17.058;2022-10-16T02:21:38;9.67;;;8.87;;
2610;SDS011;5612;51.134;17.058;2022-10-16T02:24:12;9.83;;;8.93;;
2610;SDS011;5612;51.134;17.058;2022-10-16T02:26:49;11.70;;;10.50;;
2610;SDS011;5612;51.134;17.058;2022-10-16T02:29:22;9.70;;;9.00;;
2610;SDS011;5612;51.134;17.058;2022-10-16T02:31:54;10.20;;;9.40;;
2610;SDS011;5612;51.134;17.058;2022-10-16T02:34:44;10.07;;;9.20;;
2610;SDS011;5612;51.134;17.058;2022-10-16T02:37:14;9.70;;;9.00;;
2610;SDS011;5612;51.134;17.058;2022-10-16T02:39:44;10.30;;;9.47;;
2610;SDS011;5612;51.134;17.058;2022-10-16T02:42:13;10.53;;;9.67;;
2610;SDS011;5612;51.134;17.058;2022-10-16T02:44:43;10.27;;;9.40;;
2610;SDS011;5612;51.134;17.058;2022-10-16T02:47:12;10.37;;;9.67;;
2610;SDS011;5612;51.134;17.058;2022-10-16T02:49:41;9.90;;;9.00;;
2610;SDS011;5612;51.134;17.058;2022-10-16T02:52:09;10.30;;;9.40;;
2610;SDS011;5612;51.134;17.058;2022-10-16T02:54:38;12.07;;;10.87;;
2610;SDS011;5612;51.134;17.058;2022-10-16T02:57:07;10.40;;;9.40;;
2610;SDS011;5612;51.134;17.058;2022-10-16T02:59:36;9.90;;;8.83;;
2610;SDS011;5612;51.134;17.058;2022-10-16T03:02:06;10.70;;;9.70;;
2610;SDS011;5612;51.134;17.058;2022-10-16T03:04:34;10.60;;;9.73;;
2610;SDS011;5612;51.134;17.058;2022-10-16T03:07:03;10.77;;;9.87;;
2610;SDS011;5612;51.134;17.058;2022-10-16T03:09:32;10.80;;;9.70;;
2610;SDS011;5612;51.134;17.058;2022-10-16T03:12:01;10.30;;;9.40;;
2610;SDS011;5612;51.134;17.058;2022-10-16T03:14:30;10.60;;;9.70;;
2610;SDS011;5612;51.134;17.058;2022-10-16T03:16:58;11.00;;;10.00;;
2610;SDS011;5612;51.134;17.058;2022-10-16T03:19:28;11.20;;;9.67;;
2610;SDS011;5612;51.134;17.058;2022-10-16T03:21:57;11.90;;;10.70;;
2610;SDS011;5612;51.134;17.058;2022-10-16T03:24:25;10.17;;;9.27;;
2610;SDS011;5612;51.134;17.058;2022-10-16T03:26:54;10.17;;;9.27;;
2610;SDS011;5612;51.134;17.058;2022-10-16T03:29:23;9.90;;;9.00;;
2610;SDS011;5612;51.134;17.058;2022-10-16T03:31:52;11.27;;;10.13;;
2610;SDS011;5612;51.134;17.058;2022-10-16T03:34:21;10.47;;;9.57;;
2610;SDS011;5612;51.134;17.058;2022-10-16T03:36:51;11.30;;;10.37;;
2610;SDS011;5612;51.134;17.058;2022-10-16T03:39:20;10.83;;;9.80;;
2610;SDS011;5612;51.134;17.058;2022-10-16T03:41:48;11.07;;;10.07;;
2610;SDS011;5612;51.134;17.058;2022-10-16T03:44:17;10.43;;;9.50;;
2610;SDS011;5612;51.134;17.058;2022-10-16T03:46:46;12.17;;;11.07;;
2610;SDS011;5612;51.134;17.058;2022-10-16T03:49:14;11.07;;;10.03;;
2610;SDS011;5612;51.134;17.058;2022-10-16T03:51:43;12.13;;;11.03;;
2610;SDS011;5612;51.134;17.058;2022-10-16T03:54:13;11.70;;;10.70;;
2610;SDS011;5612;51.134;17.058;2022-10-16T03:56:42;12.07;;;10.93;;
2610;SDS011;5612;51.134;17.058;2022-10-16T03:59:10;12.63;;;11.53;;
2610;SDS011;5612;51.134;17.058;2022-10-16T04:01:40;12.57;;;11.37;;
2610;SDS011;5612;51.134;17.058;2022-10-16T04:04:08;13.13;;;11.97;;
2610;SDS011;5612;51.134;17.058;2022-10-16T04:06:37;21.43;;;15.27;;
2610;SDS011;5612;51.134;17.058;2022-10-16T04:09:06;16.47;;;14.90;;
2610;SDS011;5612;51.134;17.058;2022-10-16T04:11:36;15.00;;;13.60;;
2610;SDS011;5612;51.134;17.058;2022-10-16T04:14:05;14.77;;;13.47;;
2610;SDS011;5612;51.134;17.058;2022-10-16T04:16:34;17.10;;;13.80;;
2610;SDS011;5612;51.134;17.058;2022-10-16T04:19:02;14.37;;;12.97;;
2610;SDS011;5612;51.134;17.058;2022-10-16T04:21:31;13.97;;;12.23;;
2610;SDS011;5612;51.134;17.058;2022-10-16T04:24:00;14.60;;;13.00;;
2610;SDS011;5612;51.134;17.058;2022-10-16T04:26:28;13.33;;;12.13;;
2610;SDS011;5612;51.134;17.058;2022-10-16T04:28:59;13.97;;;12.63;;
2610;SDS011;5612;51.134;17.058;2022-10-16T04:31:27;13.47;;;12.37;;
2610;SDS011;5612;51.134;17.058;2022-10-16T04:33:56;13.13;;;11.80;;
2610;SDS011;5612;51.134;17.058;2022-10-16T04:36:25;12.77;;;11.63;;
2610;SDS011;5612;51.134;17.058;2022-10-16T04:38:54;13.20;;;11.90;;
2610;SDS011;5612;51.134;17.058;2022-10-16T04:41:23;13.57;;;12.20;;
2610;SDS011;5612;51.134;17.058;2022-10-16T04:43:52;13.57;;;12.47;;
2610;SDS011;5612;51.134;17.058;2022-10-16T04:46:22;12.63;;;11.43;;
2610;SDS011;5612;51.134;17.058;2022-10-16T04:48:50;12.07;;;10.97;;
2610;SDS011;5612;51.134;17.058;2022-10-16T04:51:20;12.13;;;11.03;;
2610;SDS011;5612;51.134;17.058;2022-10-16T04:53:49;11.57;;;10.57;;
2610;SDS011;5612;51.134;17.058;2022-10-16T04:56:17;11.30;;;10.30;;
2610;SDS011;5612;51.134;17.058;2022-10-16T04:58:47;11.30;;;10.20;;
2610;SDS011;5612;51.134;17.058;2022-10-16T05:01:15;11.40;;;10.30;;
2610;SDS011;5612;51.134;17.058;2022-10-16T05:03:46;12.00;;;11.00;;
2610;SDS011;5612;51.134;17.058;2022-10-16T05:06:14;11.30;;;10.30;;
2610;SDS011;5612;51.134;17.058;2022-10-16T05:08:43;11.10;;;10.10;;
2610;SDS011;5612;51.134;17.058;2022-10-16T05:11:11;12.00;;;11.00;;
2610;SDS011;5612;51.134;17.058;2022-10-16T05:13:40;11.60;;;10.50;;
2610;SDS011;5612;51.134;17.058;2022-10-16T05:16:09;11.10;;;10.20;;
2610;SDS011;5612;51.134;17.058;2022-10-16T05:18:37;11.10;;;10.20;;
2610;SDS011;5612;51.134;17.058;2022-10-16T05:21:07;13.00;;;11.90;;
2610;SDS011;5612;51.134;17.058;2022-10-16T05:23:36;10.93;;;9.90;;
2610;SDS011;5612;51.134;17.058;2022-10-16T05:26:05;10.30;;;9.40;;
2610;SDS011;5612;51.134;17.058;2022-10-16T05:28:33;11.60;;;10.50;;
2610;SDS011;5612;51.134;17.058;2022-10-16T05:31:04;11.53;;;10.57;;
2610;SDS011;5612;51.134;17.058;2022-10-16T05:33:33;10.97;;;10.07;;
2610;SDS011;5612;51.134;17.058;2022-10-16T05:36:02;12.13;;;11.13;;
2610;SDS011;5612;51.134;17.058;2022-10-16T05:38:34;11.37;;;10.40;;
2610;SDS011;5612;51.134;17.058;2022-10-16T05:41:03;11.10;;;10.20;;
2610;SDS011;5612;51.134;17.058;2022-10-16T05:43:32;10.83;;;9.83;;
2610;SDS011;5612;51.134;17.058;2022-10-16T05:46:02;13.20;;;12.10;;
2610;SDS011;5612;51.134;17.058;2022-10-16T05:48:32;11.07;;;10.10;;
2610;SDS011;5612;51.134;17.058;2022-10-16T05:51:01;12.03;;;11.00;;
2610;SDS011;5612;51.134;17.058;2022-10-16T05:53:32;11.40;;;10.40;;
2610;SDS011;5612;51.134;17.058;2022-10-16T05:56:03;11.80;;;10.80;;
2610;SDS011;5612;51.134;17.058;2022-10-16T05:58:33;11.00;;;10.10;;
2610;SDS011;5612;51.134;17.058;2022-10-16T06:01:04;12.10;;;11.10;;
2610;SDS011;5612;51.134;17.058;2022-10-16T06:03:34;12.13;;;10.87;;
2610;SDS011;5612;51.134;17.058;2022-10-16T06:06:10;11.67;;;10.77;;
2610;SDS011;5612;51.134;17.058;2022-10-16T06:08:41;11.57;;;10.47;;
2610;SDS011;5612;51.134;17.058;2022-10-16T06:11:14;11.73;;;10.63;;
2610;SDS011;5612;51.134;17.058;2022-10-16T06:13:44;10.90;;;9.90;;
2610;SDS011;5612;51.134;17.058;2022-10-16T06:16:14;11.53;;;10.63;;
2610;SDS011;5612;51.134;17.058;2022-10-16T06:18:42;10.77;;;9.83;;
2610;SDS011;5612;51.134;17.058;2022-10-16T06:21:12;10.43;;;9.57;;
2610;SDS011;5612;51.134;17.058;2022-10-16T06:23:45;11.20;;;10.20;;
2610;SDS011;5612;51.134;17.058;2022-10-16T06:26:15;10.90;;;10.00;;
2610;SDS011;5612;51.134;17.058;2022-10-16T06:28:45;10.13;;;9.33;;
2610;SDS011;5612;51.134;17.058;2022-10-16T06:31:14;9.97;;;9.13;;
2610;SDS011;5612;51.134;17.058;2022-10-16T06:33:43;9.23;;;8.43;;
2610;SDS011;5612;51.134;17.058;2022-10-16T06:36:15;9.30;;;8.50;;
2610;SDS011;5612;51.134;17.058;2022-10-16T06:38:46;10.30;;;9.27;;
2610;SDS011;5612;51.134;17.058;2022-10-16T06:41:16;9.63;;;8.73;;
2610;SDS011;5612;51.134;17.058;2022-10-16T06:43:47;9.60;;;8.70;;
2610;SDS011;5612;51.134;17.058;2022-10-16T06:46:17;9.00;;;8.30;;
2610;SDS011;5612;51.134;17.058;2022-10-16T06:48:47;9.07;;;8.37;;
2610;SDS011;5612;51.134;17.058;2022-10-16T06:51:17;9.53;;;8.80;;
2610;SDS011;5612;51.134;17.058;2022-10-16T06:53:48;8.43;;;7.73;;
2610;SDS011;5612;51.134;17.058;2022-10-16T06:56:34;9.60;;;8.90;;
2610;SDS011;5612;51.134;17.058;2022-10-16T06:59:04;8.40;;;7.70;;
2610;SDS011;5612;51.134;17.058;2022-10-16T07:01:33;11.53;;;10.37;;
2610;SDS011;5612;51.134;17.058;2022-10-16T07:04:02;9.20;;;8.40;;
2610;SDS011;5612;51.134;17.058;2022-10-16T07:06:31;9.80;;;8.93;;
2610;SDS011;5612;51.134;17.058;2022-10-16T07:09:04;10.30;;;9.40;;
2610;SDS011;5612;51.134;17.058;2022-10-16T07:11:34;8.97;;;8.27;;
2610;SDS011;5612;51.134;17.058;2022-10-16T07:14:04;9.30;;;8.60;;
2610;SDS011;5612;51.134;17.058;2022-10-16T07:16:40;9.40;;;8.60;;
2610;SDS011;5612;51.134;17.058;2022-10-16T07:19:08;8.80;;;8.20;;
2610;SDS011;5612;51.134;17.058;2022-10-16T07:21:38;8.83;;;8.23;;
2610;SDS011;5612;51.134;17.058;2022-10-16T07:24:10;8.30;;;7.50;;
2610;SDS011;5612;51.134;17.058;2022-10-16T07:26:41;8.67;;;7.97;;
2610;SDS011;5612;51.134;17.058;2022-10-16T07:29:11;8.03;;;7.33;;
2610;SDS011;5612;51.134;17.058;2022-10-16T07:31:42;7.90;;;7.20;;
2610;SDS011;5612;51.134;17.058;2022-10-16T07:34:11;8.97;;;8.17;;
2610;SDS011;5612;51.134;17.058;2022-10-16T07:36:41;8.37;;;7.70;;
2610;SDS011;5612;51.134;17.058;2022-10-16T07:39:11;8.00;;;7.30;;
2610;SDS011;5612;51.134;17.058;2022-10-16T07:41:40;7.87;;;7.17;;
2610;SDS011;5612;51.134;17.058;2022-10-16T07:44:08;7.33;;;6.73;;
2610;SDS011;5612;51.134;17.058;2022-10-16T07:46:37;7.30;;;6.70;;
2610;SDS011;5612;51.134;17.058;2022-10-16T07:49:06;7.07;;;6.47;;
2610;SDS011;5612;51.134;17.058;2022-10-16T07:51:34;6.73;;;6.13;;
2610;SDS011;5612;51.134;17.058;2022-10-16T07:54:04;6.10;;;5.60;;
2610;SDS011;5612;51.134;17.058;2022-10-16T07:56:34;6.23;;;5.83;;
2610;SDS011;5612;51.134;17.058;2022-10-16T07:59:09;6.23;;;5.70;;
2610;SDS011;5612;51.134;17.058;2022-10-16T08:01:38;6.00;;;5.50;;
2610;SDS011;5612;51.134;17.058;2022-10-16T08:04:06;6.07;;;5.47;;
2610;SDS011;5612;51.134;17.058;2022-10-16T08:06:37;6.10;;;5.60;;
2610;SDS011;5612;51.134;17.058;2022-10-16T08:09:08;5.37;;;4.97;;
2610;SDS011;5612;51.134;17.058;2022-10-16T08:11:38;5.43;;;5.03;;
2610;SDS011;5612;51.134;17.058;2022-10-16T08:14:07;5.63;;;5.20;;
2610;SDS011;5612;51.134;17.058;2022-10-16T08:16:39;5.50;;;5.10;;
2610;SDS011;5612;51.134;17.058;2022-10-16T08:19:08;4.30;;;4.00;;
2610;SDS011;5612;51.134;17.058;2022-10-16T08:21:36;5.00;;;4.70;;
2610;SDS011;5612;51.134;17.058;2022-10-16T08:24:05;4.83;;;4.43;;
2610;SDS011;5612;51.134;17.058;2022-10-16T08:26:34;5.33;;;4.83;;
2610;SDS011;5612;51.134;17.058;2022-10-16T08:29:04;4.70;;;4.40;;
2610;SDS011;5612;51.134;17.058;2022-10-16T08:31:33;5.40;;;4.90;;
2610;SDS011;5612;51.134;17.058;2022-10-16T08:34:03;4.27;;;4.00;;
2610;SDS011;5612;51.134;17.058;2022-10-16T08:36:32;4.90;;;4.60;;
2610;SDS011;5612;51.134;17.058;2022-10-16T08:39:01;5.23;;;4.83;;
2610;SDS011;5612;51.134;17.058;2022-10-16T08:41:46;4.77;;;4.43;;
2610;SDS011;5612;51.134;17.058;2022-10-16T08:47:56;5.13;;;4.73;;
2610;SDS011;5612;51.134;17.058;2022-10-16T08:50:36;5.00;;;4.60;;
2610;SDS011;5612;51.134;17.058;2022-10-16T08:53:09;4.90;;;4.60;;
2610;SDS011;5612;51.134;17.058;2022-10-16T08:55:45;4.40;;;4.20;;
2610;SDS011;5612;51.134;17.058;2022-10-16T08:58:18;4.57;;;4.27;;
2610;SDS011;5612;51.134;17.058;2022-10-16T09:01:00;4.30;;;4.10;;
2610;SDS011;5612;51.134;17.058;2022-10-16T09:03:36;5.17;;;4.67;;
2610;SDS011;5612;51.134;17.058;2022-10-16T09:06:26;4.57;;;4.27;;
2610;SDS011;5612;51.134;17.058;2022-10-16T09:09:08;4.80;;;4.40;;
2610;SDS011;5612;51.134;17.058;2022-10-16T09:11:51;5.27;;;4.77;;
2610;SDS011;5612;51.134;17.058;2022-10-16T09:14:34;5.13;;;4.63;;
2610;SDS011;5612;51.134;17.058;2022-10-16T09:17:22;4.83;;;4.50;;
2610;SDS011;5612;51.134;17.058;2022-10-16T09:20:02;4.77;;;4.47;;
2610;SDS011;5612;51.134;17.058;2022-10-16T09:22:41;4.50;;;4.10;;
2610;SDS011;5612;51.134;17.058;2022-10-16T09:25:13;4.17;;;3.93;;
2610;SDS011;5612;51.134;17.058;2022-10-16T09:27:44;4.93;;;4.53;;
2610;SDS011;5612;51.134;17.058;2022-10-16T09:30:16;4.37;;;4.07;;
2610;SDS011;5612;51.134;17.058;2022-10-16T09:32:49;4.10;;;3.80;;
2610;SDS011;5612;51.134;17.058;2022-10-16T09:35:20;4.40;;;4.00;;
2610;SDS011;5612;51.134;17.058;2022-10-16T09:38:00;3.97;;;3.77;;
2610;SDS011;5612;51.134;17.058;2022-10-16T09:40:29;4.43;;;4.03;;
2610;SDS011;5612;51.134;17.058;2022-10-16T09:43:02;4.50;;;4.20;;
2610;SDS011;5612;51.134;17.058;2022-10-16T09:45:40;3.53;;;3.33;;
2610;SDS011;5612;51.134;17.058;2022-10-16T09:48:11;3.77;;;3.47;;
2610;SDS011;5612;51.134;17.058;2022-10-16T09:50:41;3.70;;;3.50;;
2610;SDS011;5612;51.134;17.058;2022-10-16T09:53:10;3.90;;;3.60;;
2610;SDS011;5612;51.134;17.058;2022-10-16T09:55:49;3.93;;;3.73;;
2610;SDS011;5612;51.134;17.058;2022-10-16T09:58:21;3.50;;;3.30;;
2610;SDS011;5612;51.134;17.058;2022-10-16T10:00:51;3.20;;;3.10;;
2610;SDS011;5612;51.134;17.058;2022-10-16T10:03:30;3.50;;;3.30;;
2610;SDS011;5612;51.134;17.058;2022-10-16T10:06:06;3.33;;;3.13;;
2610;SDS011;5612;51.134;17.058;2022-10-16T10:08:58;3.03;;;2.90;;
2610;SDS011;5612;51.134;17.058;2022-10-16T10:11:42;2.50;;;2.40;;
2610;SDS011;5612;51.134;17.058;2022-10-16T10:14:16;3.00;;;2.80;;
2610;SDS011;5612;51.134;17.058;2022-10-16T10:16:48;2.40;;;2.30;;
2610;SDS011;5612;51.134;17.058;2022-10-16T10:19:19;3.27;;;3.07;;
2610;SDS011;5612;51.134;17.058;2022-10-16T10:21:53;3.53;;;3.23;;
2610;SDS011;5612;51.134;17.058;2022-10-16T10:24:22;3.03;;;2.57;;
2610;SDS011;5612;51.134;17.058;2022-10-16T10:26:53;2.40;;;2.30;;
2610;SDS011;5612;51.134;17.058;2022-10-16T10:29:31;4.17;;;2.93;;
2610;SDS011;5612;51.134;17.058;2022-10-16T10:32:15;2.97;;;2.77;;
2610;SDS011;5612;51.134;17.058;2022-10-16T10:35:00;2.77;;;2.57;;
2610;SDS011;5612;51.134;17.058;2022-10-16T10:37:43;2.77;;;2.57;;
2610;SDS011;5612;51.134;17.058;2022-10-16T10:40:28;2.40;;;2.30;;
2610;SDS011;5612;51.134;17.058;2022-10-16T10:43:04;2.60;;;2.50;;
2610;SDS011;5612;51.134;17.058;2022-10-16T10:45:41;2.37;;;2.27;;
2610;SDS011;5612;51.134;17.058;2022-10-16T10:48:16;2.20;;;2.10;;
2610;SDS011;5612;51.134;17.058;2022-10-16T10:50:54;2.50;;;2.37;;
2610;SDS011;5612;51.134;17.058;2022-10-16T10:53:35;2.83;;;2.63;;
2610;SDS011;5612;51.134;17.058;2022-10-16T10:56:16;2.20;;;2.00;;
2610;SDS011;5612;51.134;17.058;2022-10-16T10:59:06;2.20;;;2.10;;
2610;SDS011;5612;51.134;17.058;2022-10-16T11:01:56;2.27;;;2.10;;
2610;SDS011;5612;51.134;17.058;2022-10-16T11:04:40;2.07;;;1.97;;
2610;SDS011;5612;51.134;17.058;2022-10-16T11:07:19;2.00;;;1.90;;
2610;SDS011;5612;51.134;17.058;2022-10-16T11:09:53;2.40;;;2.20;;
2610;SDS011;5612;51.134;17.058;2022-10-16T11:12:27;2.10;;;2.00;;
2610;SDS011;5612;51.134;17.058;2022-10-16T11:15:02;2.07;;;1.97;;
2610;SDS011;5612;51.134;17.058;2022-10-16T11:17:33;2.10;;;2.00;;
2610;SDS011;5612;51.134;17.058;2022-10-16T11:20:12;2.10;;;2.00;;
2610;SDS011;5612;51.134;17.058;2022-10-16T11:22:47;1.97;;;1.87;;
2610;SDS011;5612;51.134;17.058;2022-10-16T11:25:20;2.50;;;2.30;;
2610;SDS011;5612;51.134;17.058;2022-10-16T11:27:53;2.60;;;2.40;;
2610;SDS011;5612;51.134;17.058;2022-10-16T11:30:26;2.33;;;2.23;;
2610;SDS011;5612;51.134;17.058;2022-10-16T11:33:03;2.10;;;2.00;;
2610;SDS011;5612;51.134;17.058;2022-10-16T11:35:53;2.27;;;2.17;;
2610;SDS011;5612;51.134;17.058;2022-10-16T11:38:30;2.47;;;2.37;;
2610;SDS011;5612;51.134;17.058;2022-10-16T11:41:07;2.20;;;2.10;;
2610;SDS011;5612;51.134;17.058;2022-10-16T11:43:46;2.20;;;2.10;;
2610;SDS011;5612;51.134;17.058;2022-10-16T11:46:21;2.50;;;2.40;;
2610;SDS011;5612;51.134;17.058;2022-10-16T11:48:55;2.73;;;2.53;;
2610;SDS011;5612;51.134;17.058;2022-10-16T11:51:33;2.50;;;2.40;;
2610;SDS011;5612;51.134;17.058;2022-10-16T11:54:10;2.40;;;2.23;;
2610;SDS011;5612;51.134;17.058;2022-10-16T11:56:48;2.70;;;2.60;;
2610;SDS011;5612;51.134;17.058;2022-10-16T11:59:22;2.20;;;2.10;;
2610;SDS011;5612;51.134;17.058;2022-10-16T12:01:57;2.70;;;2.60;;
2610;SDS011;5612;51.134;17.058;2022-10-16T12:04:49;2.63;;;2.53;;
2610;SDS011;5612;51.134;17.058;2022-10-16T12:07:27;3.03;;;2.23;;
2610;SDS011;5612;51.134;17.058;2022-10-16T12:10:11;2.80;;;2.60;;
2610;SDS011;5612;51.134;17.058;2022-10-16T12:12:53;3.00;;;2.90;;
2610;SDS011;5612;51.134;17.058;2022-10-16T12:15:24;3.77;;;3.57;;
2610;SDS011;5612;51.134;17.058;2022-10-16T12:18:20;4.10;;;3.80;;
2610;SDS011;5612;51.134;17.058;2022-10-16T12:20:54;3.73;;;3.53;;
2610;SDS011;5612;51.134;17.058;2022-10-16T12:23:27;4.30;;;4.00;;
2610;SDS011;5612;51.134;17.058;2022-10-16T12:25:58;3.40;;;3.10;;
2610;SDS011;5612;51.134;17.058;2022-10-16T12:28:29;3.40;;;3.20;;
2610;SDS011;5612;51.134;17.058;2022-10-16T12:31:00;3.10;;;2.90;;
2610;SDS011;5612;51.134;17.058;2022-10-16T12:33:32;3.60;;;3.40;;
2610;SDS011;5612;51.134;17.058;2022-10-16T12:36:03;4.00;;;3.70;;
2610;SDS011;5612;51.134;17.058;2022-10-16T12:38:46;3.90;;;3.60;;
2610;SDS011;5612;51.134;17.058;2022-10-16T12:41:25;4.20;;;4.00;;
2610;SDS011;5612;51.134;17.058;2022-10-16T12:43:55;4.20;;;4.00;;
2610;SDS011;5612;51.134;17.058;2022-10-16T12:46:35;4.80;;;4.50;;
2610;SDS011;5612;51.134;17.058;2022-10-16T12:49:23;4.87;;;4.43;;
2610;SDS011;5612;51.134;17.058;2022-10-16T12:51:59;4.53;;;4.23;;
2610;SDS011;5612;51.134;17.058;2022-10-16T12:54:29;5.93;;;5.00;;
2610;SDS011;5612;51.134;17.058;2022-10-16T12:57:04;4.40;;;4.20;;
2610;SDS011;5612;51.134;17.058;2022-10-16T12:59:48;5.30;;;4.90;;
2610;SDS011;5612;51.134;17.058;2022-10-16T13:02:35;6.40;;;5.77;;
2610;SDS011;5612;51.134;17.058;2022-10-16T13:05:18;5.87;;;5.40;;
2610;SDS011;5612;51.134;17.058;2022-10-16T13:07:57;6.40;;;5.90;;
2610;SDS011;5612;51.134;17.058;2022-10-16T13:10:35;6.53;;;5.97;;
2610;SDS011;5612;51.134;17.058;2022-10-16T13:13:21;6.90;;;6.40;;
2610;SDS011;5612;51.134;17.058;2022-10-16T13:16:08;5.80;;;5.40;;
2610;SDS011;5612;51.134;17.058;2022-10-16T13:18:49;6.70;;;6.20;;
2610;SDS011;5612;51.134;17.058;2022-10-16T13:21:28;7.13;;;6.33;;
2610;SDS011;5612;51.134;17.058;2022-10-16T13:24:07;6.67;;;6.03;;
2610;SDS011;5612;51.134;17.058;2022-10-16T13:26:46;6.57;;;6.07;;
2610;SDS011;5612;51.134;17.058;2022-10-16T13:29:23;6.90;;;6.30;;
2610;SDS011;5612;51.134;17.058;2022-10-16T13:31:57;6.20;;;5.70;;
2610;SDS011;5612;51.134;17.058;2022-10-16T13:34:27;6.00;;;5.50;;
2610;SDS011;5612;51.134;17.058;2022-10-16T13:36:57;5.70;;;5.20;;
2610;SDS011;5612;51.134;17.058;2022-10-16T13:39:26;5.67;;;5.37;;
2610;SDS011;5612;51.134;17.058;2022-10-16T13:42:01;5.60;;;5.23;;
2610;SDS011;5612;51.134;17.058;2022-10-16T13:44:38;5.40;;;5.00;;
2610;SDS011;5612;51.134;17.058;2022-10-16T13:47:15;5.43;;;5.03;;
2610;SDS011;5612;51.134;17.058;2022-10-16T13:49:45;5.23;;;4.93;;
2610;SDS011;5612;51.134;17.058;2022-10-16T13:52:15;5.00;;;4.60;;
2610;SDS011;5612;51.134;17.058;2022-10-16T13:54:46;5.63;;;5.23;;
2610;SDS011;5612;51.134;17.058;2022-10-16T13:57:16;5.53;;;5.13;;
2610;SDS011;5612;51.134;17.058;2022-10-16T13:59:54;5.33;;;5.03;;
2610;SDS011;5612;51.134;17.058;2022-10-16T14:02:25;4.50;;;4.20;;
2610;SDS011;5612;51.134;17.058;2022-10-16T14:04:56;4.40;;;4.10;;
2610;SDS011;5612;51.134;17.058;2022-10-16T14:07:26;4.30;;;4.10;;
2610;SDS011;5612;51.134;17.058;2022-10-16T14:09:58;3.90;;;3.70;;
2610;SDS011;5612;51.134;17.058;2022-10-16T14:12:29;3.90;;;3.70;;
2610;SDS011;5612;51.134;17.058;2022-10-16T14:15:00;4.00;;;3.80;;
2610;SDS011;5612;51.134;17.058;2022-10-16T14:17:29;4.10;;;3.90;;
2610;SDS011;5612;51.134;17.058;2022-10-16T14:20:04;3.70;;;3.50;;
2610;SDS011;5612;51.134;17.058;2022-10-16T14:22:42;3.90;;;3.70;;
2610;SDS011;5612;51.134;17.058;2022-10-16T14:25:20;3.90;;;3.70;;
2610;SDS011;5612;51.134;17.058;2022-10-16T14:27:57;4.10;;;3.90;;
2610;SDS011;5612;51.134;17.058;2022-10-16T14:30:30;4.57;;;4.27;;
2610;SDS011;5612;51.134;17.058;2022-10-16T14:33:01;4.50;;;4.20;;
2610;SDS011;5612;51.134;17.058;2022-10-16T14:35:31;4.50;;;4.20;;
2610;SDS011;5612;51.134;17.058;2022-10-16T14:38:02;4.90;;;4.60;;
2610;SDS011;5612;51.134;17.058;2022-10-16T14:40:33;5.20;;;4.80;;
2610;SDS011;5612;51.134;17.058;2022-10-16T14:43:04;4.47;;;4.17;;
2610;SDS011;5612;51.134;17.058;2022-10-16T14:45:34;4.70;;;4.40;;
2610;SDS011;5612;51.134;17.058;2022-10-16T14:48:05;4.47;;;4.27;;
2610;SDS011;5612;51.134;17.058;2022-10-16T14:50:45;4.60;;;4.30;;
2610;SDS011;5612;51.134;17.058;2022-10-16T14:53:14;5.20;;;4.80;;
2610;SDS011;5612;51.134;17.058;2022-10-16T14:55:43;5.63;;;5.23;;
2610;SDS011;5612;51.134;17.058;2022-10-16T14:58:13;5.80;;;5.23;;
2610;SDS011;5612;51.134;17.058;2022-10-16T15:00:45;5.33;;;4.93;;
2610;SDS011;5612;51.134;17.058;2022-10-16T15:03:15;5.00;;;4.70;;
2610;SDS011;5612;51.134;17.058;2022-10-16T15:05:44;5.23;;;4.93;;
2610;SDS011;5612;51.134;17.058;2022-10-16T15:08:12;4.83;;;4.43;;
2610;SDS011;5612;51.134;17.058;2022-10-16T15:10:42;5.93;;;5.53;;
2610;SDS011;5612;51.134;17.058;2022-10-16T15:13:12;5.97;;;5.57;;
2610;SDS011;5612;51.134;17.058;2022-10-16T15:15:42;5.90;;;5.50;;
2610;SDS011;5612;51.134;17.058;2022-10-16T15:18:13;5.50;;;5.10;;
2610;SDS011;5612;51.134;17.058;2022-10-16T15:20:47;5.33;;;4.97;;
2610;SDS011;5612;51.134;17.058;2022-10-16T15:23:18;5.40;;;5.00;;
2610;SDS011;5612;51.134;17.058;2022-10-16T15:25:48;5.50;;;4.97;;
2610;SDS011;5612;51.134;17.058;2022-10-16T15:28:19;5.30;;;5.00;;
2610;SDS011;5612;51.134;17.058;2022-10-16T15:30:49;5.90;;;5.50;;